createdAt,value
2019-04-22T00:00:50.125Z,101033.37
2019-04-22T00:02:01.080Z,101036.55
2019-04-22T00:03:05.211Z,101033.02
2019-04-22T00:04:15.563Z,101037.40
2019-04-22T00:05:37.718Z,101034.36
2019-04-22T00:06:48.401Z,101032.67
2019-04-22T00:08:00.361Z,101038.03
2019-04-22T00:09:02.281Z,101031.86
2019-04-22T00:10:11.795Z,101029.67
2019-04-22T00:11:26.113Z,101025.65
2019-04-22T00:12:29.272Z,101031.51
2019-04-22T00:13:40.797Z,101029.81
2019-04-22T00:14:38.745Z,101032.99
2019-04-22T00:15:42.411Z,101034.86
2019-04-22T00:16:53.499Z,101030.48
2019-04-22T00:19:15.328Z,101031.48
2019-04-22T00:20:18.519Z,101024.42
2019-04-22T00:21:25.744Z,101025.27
2019-04-22T00:22:32.118Z,101022.27
2019-04-22T00:23:41.868Z,101026.78
2019-04-22T00:24:46.096Z,101022.41
2019-04-22T00:25:55.838Z,101024.25
2019-04-22T00:27:03.928Z,101019.91
2019-04-22T00:28:08.882Z,101017.22
2019-04-22T00:29:39.434Z,101015.53
2019-04-22T00:30:36.070Z,101009.82
2019-04-22T00:31:47.974Z,101012.50
2019-04-22T00:33:13.327Z,101006.78
2019-04-22T00:34:25.485Z,101011.34
2019-04-22T00:35:30.535Z,101009.64
2019-04-22T00:36:36.597Z,101017.83
2019-04-22T00:37:54.069Z,101011.80
2019-04-22T00:38:59.258Z,101010.11
2019-04-22T00:39:57.604Z,101017.83
2019-04-22T00:41:05.513Z,101012.12
2019-04-22T00:42:18.099Z,101011.27
2019-04-22T00:44:40.320Z,101013.11
2019-04-22T00:45:43.158Z,101018.47
2019-04-22T00:46:52.658Z,101013.11
2019-04-22T00:47:55.115Z,101011.44
2019-04-22T00:49:49.075Z,101014.94
2019-04-22T00:50:25.481Z,101009.26
2019-04-22T00:51:36.596Z,101013.77
2019-04-22T00:52:21.926Z,101007.56
2019-04-22T00:53:37.126Z,101007.67
2019-04-22T00:54:49.559Z,101004.50
2019-04-22T00:56:00.556Z,101011.70
2019-04-22T00:57:09.171Z,101008.34
2019-04-22T00:58:16.217Z,101007.50
2019-04-22T00:59:23.427Z,101002.31
2019-04-22T01:00:33.848Z,100997.45
2019-04-22T01:01:39.780Z,100997.09
2019-04-22T01:02:49.574Z,101000.27
2019-04-22T01:03:56.006Z,101004.29
2019-04-22T01:05:05.509Z,100998.26
2019-04-22T01:06:07.763Z,100994.23
2019-04-22T01:07:11.841Z,100993.75
2019-04-22T01:08:23.865Z,100991.20
2019-04-22T01:09:31.317Z,100990.36
2019-04-22T01:10:39.080Z,100994.91
2019-04-22T01:11:37.605Z,100994.55
2019-04-22T01:12:54.571Z,100996.39
2019-04-22T01:13:55.830Z,100992.02
2019-04-22T01:15:09.488Z,100992.19
2019-04-22T01:16:13.899Z,100989.16
2019-04-22T01:17:19.349Z,100988.81
2019-04-22T01:18:23.916Z,100991.17
2019-04-22T01:19:38.685Z,100986.80
2019-04-22T01:21:00.892Z,100985.95
2019-04-22T01:21:43.643Z,100984.26
2019-04-22T01:22:52.203Z,100983.09
2019-04-22T01:23:59.712Z,100986.27
2019-04-22T01:25:08.019Z,100981.40
2019-04-22T01:26:09.506Z,100979.39
2019-04-22T01:27:20.474Z,100979.88
2019-04-22T01:28:27.934Z,100976.36
2019-04-22T01:29:31.754Z,100977.03
2019-04-22T01:30:38.573Z,100972.66
2019-04-22T01:31:39.902Z,100976.32
2019-04-22T01:32:47.235Z,100973.33
2019-04-22T01:34:08.274Z,100970.30
2019-04-22T01:35:15.587Z,100970.95
2019-04-22T01:36:25.917Z,100972.80
2019-04-22T01:37:28.750Z,100963.56
2019-04-22T01:38:46.404Z,100964.05
2019-04-22T01:39:50.358Z,100966.23
2019-04-22T01:41:05.013Z,100958.38
2019-04-22T01:42:16.828Z,100962.89
2019-04-22T01:43:18.545Z,100958.52
2019-04-22T01:44:31.391Z,100959.86
2019-04-22T01:45:32.561Z,100950.66
2019-04-22T01:46:36.929Z,100953.33
2019-04-22T01:47:46.160Z,100955.16
2019-04-22T01:48:54.335Z,100956.16
2019-04-22T01:49:52.678Z,100952.14
2019-04-22T01:51:00.822Z,100953.97
2019-04-22T01:52:11.474Z,100956.16
2019-04-22T01:53:24.549Z,100950.13
2019-04-22T01:54:29.777Z,100956.82
2019-04-22T01:55:31.325Z,100954.98
2019-04-22T01:56:44.907Z,100955.80
2019-04-22T01:57:42.960Z,100952.45
2019-04-22T01:58:44.182Z,100952.94
2019-04-22T01:59:51.978Z,100948.25
2019-04-22T02:01:09.555Z,100949.23
2019-04-22T02:02:16.201Z,100948.07
2019-04-22T02:04:31.839Z,100943.84
2019-04-22T02:05:50.467Z,100940.98
2019-04-22T02:06:43.983Z,100947.19
2019-04-22T02:07:50.208Z,100938.13
2019-04-22T02:09:04.117Z,100943.48
2019-04-22T02:10:02.409Z,100940.62
2019-04-22T02:11:07.726Z,100942.45
2019-04-22T02:13:23.737Z,100945.27
2019-04-22T02:14:33.002Z,100944.43
2019-04-22T02:15:39.959Z,100947.28
2019-04-22T02:16:51.524Z,100938.89
2019-04-22T02:17:56.856Z,100938.58
2019-04-22T02:19:07.643Z,100936.88
2019-04-22T02:20:12.010Z,100939.20
2019-04-22T02:21:10.651Z,100936.17
2019-04-22T02:22:29.044Z,100933.50
2019-04-22T02:23:47.855Z,100934.84
2019-04-22T02:25:50.995Z,100935.86
2019-04-22T02:26:48.248Z,100933.18
2019-04-22T02:28:05.437Z,100938.18
2019-04-22T02:29:11.033Z,100929.30
2019-04-22T02:30:16.384Z,100928.14
2019-04-22T02:31:44.485Z,100930.32
2019-04-22T02:34:58.153Z,100924.61
2019-04-22T02:36:20.127Z,100928.14
2019-04-22T02:37:03.308Z,100928.63
2019-04-22T02:38:19.642Z,100927.78
2019-04-22T02:39:19.922Z,100925.11
2019-04-22T02:40:34.712Z,100921.58
2019-04-22T02:41:31.032Z,100924.75
2019-04-22T02:42:35.160Z,100919.40
2019-04-22T02:49:25.058Z,100913.72
2019-04-22T02:50:34.545Z,100915.06
2019-04-22T02:52:42.682Z,100917.22
2019-04-22T02:54:27.108Z,100912.03
2019-04-22T02:55:03.052Z,100912.03
2019-04-22T02:57:28.014Z,100911.68
2019-04-22T02:58:35.700Z,100916.36
2019-04-22T02:59:34.453Z,100912.34
2019-04-22T03:00:37.864Z,100909.67
2019-04-22T03:01:41.268Z,100912.34
2019-04-22T03:03:03.908Z,100911.15
2019-04-22T03:07:18.599Z,100900.26
2019-04-22T03:08:36.725Z,100902.58
2019-04-22T03:10:57.046Z,100901.41
2019-04-22T03:11:59.204Z,100900.08
2019-04-22T03:13:00.916Z,100902.05
2019-04-22T03:15:07.960Z,100893.34
2019-04-22T03:17:35.965Z,100888.48
2019-04-22T03:18:39.378Z,100884.29
2019-04-22T03:23:16.954Z,100882.06
2019-04-22T03:25:51.787Z,100874.17
2019-04-22T03:26:39.053Z,100877.34
2019-04-22T03:28:46.276Z,100879.34
2019-04-22T03:36:58.111Z,100870.92
2019-04-22T03:37:32.128Z,100867.89
2019-04-22T03:38:55.231Z,100865.22
2019-04-22T03:44:24.833Z,100860.17
2019-04-22T03:45:26.480Z,100858.84
2019-04-22T03:46:30.320Z,100862.85
2019-04-22T03:47:35.972Z,100860.84
2019-04-22T03:48:45.799Z,100854.64
2019-04-22T03:49:55.876Z,100857.49
2019-04-22T03:51:04.706Z,100852.14
2019-04-22T03:52:11.277Z,100850.45
2019-04-22T03:57:48.922Z,100847.73
2019-04-22T03:58:54.037Z,100848.08
2019-04-22T04:00:15.100Z,100843.23
2019-04-22T04:00:56.024Z,100845.91
2019-04-22T04:03:09.768Z,100842.88
2019-04-22T04:04:32.906Z,100843.72
2019-04-22T04:05:41.848Z,100842.38
2019-04-22T04:06:39.978Z,100842.88
2019-04-22T04:08:38.901Z,100838.05
2019-04-22T04:10:53.228Z,100836.85
2019-04-22T04:13:16.821Z,100839.17
2019-04-22T04:16:44.928Z,100839.48
2019-04-22T04:17:50.141Z,100831.13
2019-04-22T04:18:58.311Z,100836.63
2019-04-22T04:20:06.478Z,100836.77
2019-04-22T04:21:12.635Z,100834.93
2019-04-22T04:29:06.444Z,100833.41
2019-04-22T04:30:14.020Z,100828.23
2019-04-22T04:31:22.411Z,100829.89
2019-04-22T04:32:31.033Z,100823.87
2019-04-22T04:33:23.273Z,100829.89
2019-04-22T04:34:44.156Z,100830.38
2019-04-22T04:35:43.756Z,100826.05
2019-04-22T04:36:59.999Z,100830.06
2019-04-22T04:37:52.515Z,100826.05
2019-04-22T04:40:11.637Z,100830.06
2019-04-22T04:41:17.642Z,100830.06
2019-04-22T04:42:37.176Z,100830.06
2019-04-22T04:43:32.811Z,100831.53
2019-04-22T04:44:50.770Z,100820.84
2019-04-22T04:46:49.778Z,100827.52
2019-04-22T04:48:09.234Z,100822.53
2019-04-22T04:49:18.744Z,100828.86
2019-04-22T04:50:06.882Z,100833.36
2019-04-22T04:52:39.296Z,100826.68
2019-04-22T04:54:35.549Z,100825.84
2019-04-22T04:55:34.874Z,100827.03
2019-04-22T04:56:50.331Z,100829.70
2019-04-22T04:58:03.470Z,100829.22
2019-04-22T04:59:13.342Z,100829.22
2019-04-22T05:01:23.197Z,100821.69
2019-04-22T05:02:29.099Z,100825.20
2019-04-22T05:03:39.918Z,100825.20
2019-04-22T05:05:00.174Z,100826.89
2019-04-22T05:05:54.703Z,100823.87
2019-04-22T05:06:59.551Z,100821.55
2019-04-22T05:09:14.728Z,100820.53
2019-04-22T05:11:32.227Z,100819.55
2019-04-22T05:12:53.003Z,100821.73
2019-04-22T05:13:49.667Z,100823.06
2019-04-22T05:14:38.501Z,100822.58
2019-04-22T05:15:59.733Z,100823.25
2019-04-22T05:16:54.154Z,100818.75
2019-04-22T05:20:26.971Z,100818.08
2019-04-22T05:21:34.534Z,100823.30
2019-04-22T05:23:38.732Z,100819.11
2019-04-22T05:24:47.839Z,100818.97
2019-04-22T05:25:51.323Z,100821.64
2019-04-22T05:26:57.027Z,100817.46
2019-04-22T05:27:57.674Z,100820.34
2019-04-22T05:29:15.044Z,100815.81
2019-04-22T05:31:21.265Z,100815.01
2019-04-22T05:33:42.483Z,100817.05
2019-04-22T05:34:48.128Z,100811.03
2019-04-22T05:35:53.671Z,100806.36
2019-04-22T05:37:00.888Z,100811.42
2019-04-22T05:38:17.114Z,100810.09
2019-04-22T05:39:18.512Z,100811.69
2019-04-22T05:40:26.283Z,100810.24
2019-04-22T05:41:30.577Z,100806.76
2019-04-22T05:42:39.488Z,100805.98
2019-04-22T05:43:40.803Z,100807.39
2019-04-22T05:45:05.505Z,100804.39
2019-04-22T05:45:58.936Z,100804.09
2019-04-22T05:47:08.583Z,100806.48
2019-04-22T05:48:13.666Z,100806.19
2019-04-22T05:50:25.021Z,100808.95
2019-04-22T05:51:37.033Z,100807.30
2019-04-22T05:52:48.468Z,100809.16
2019-04-22T05:53:53.891Z,100803.98
2019-04-22T05:55:02.001Z,100806.08
2019-04-22T05:56:13.985Z,100804.39
2019-04-22T05:57:17.953Z,100802.24
2019-04-22T05:58:24.411Z,100804.27
2019-04-22T05:59:34.437Z,100806.81
2019-04-22T06:01:07.205Z,100801.78
2019-04-22T06:01:51.521Z,100805.14
2019-04-22T06:05:10.097Z,100803.50
2019-04-22T06:06:15.183Z,100802.98
2019-04-22T06:07:25.344Z,100806.52
2019-04-22T06:08:24.035Z,100803.84
2019-04-22T06:09:36.810Z,100802.83
2019-04-22T06:10:50.415Z,100804.48
2019-04-22T06:11:36.205Z,100794.79
2019-04-22T06:12:59.228Z,100796.11
2019-04-22T06:14:04.252Z,100804.16
2019-04-22T06:15:13.971Z,100801.52
2019-04-22T06:16:20.581Z,100800.18
2019-04-22T06:17:33.807Z,100800.84
2019-04-22T06:18:33.270Z,100802.19
2019-04-22T06:19:44.654Z,100798.12
2019-04-22T06:21:03.962Z,100801.16
2019-04-22T06:21:55.787Z,100801.16
2019-04-22T06:24:16.739Z,100796.59
2019-04-22T06:25:27.641Z,100801.78
2019-04-22T06:27:35.359Z,100801.43
2019-04-22T06:28:40.632Z,100799.73
2019-04-22T06:29:41.448Z,100800.23
2019-04-22T06:30:57.602Z,100796.86
2019-04-22T06:33:14.840Z,100804.07
2019-04-22T06:34:17.879Z,100797.86
2019-04-22T06:35:32.515Z,100801.38
2019-04-22T06:36:33.488Z,100801.73
2019-04-22T06:37:46.004Z,100803.07
2019-04-22T06:38:43.114Z,100800.05
2019-04-22T06:40:06.168Z,100804.77
2019-04-22T06:41:04.493Z,100802.58
2019-04-22T06:42:07.948Z,100801.42
2019-04-22T06:43:22.139Z,100797.89
2019-04-22T06:45:24.117Z,100800.23
2019-04-22T06:46:36.711Z,100808.45
2019-04-22T06:47:51.198Z,100800.92
2019-04-22T06:48:39.815Z,100804.95
2019-04-22T06:49:55.576Z,100801.42
2019-04-22T06:51:00.108Z,100798.73
2019-04-22T06:52:14.189Z,100800.23
2019-04-22T06:53:17.212Z,100796.71
2019-04-22T06:54:21.614Z,100798.90
2019-04-22T06:56:35.324Z,100796.55
2019-04-22T06:57:44.829Z,100799.05
2019-04-22T06:59:08.530Z,100795.20
2019-04-22T06:59:58.780Z,100794.52
2019-04-22T07:01:04.362Z,100793.17
2019-04-22T07:02:20.594Z,100797.05
2019-04-22T07:03:34.798Z,100793.52
2019-04-22T07:04:23.357Z,100798.39
2019-04-22T07:05:32.797Z,100797.55
2019-04-22T07:06:42.165Z,100798.05
2019-04-22T07:07:52.153Z,100798.05
2019-04-22T07:10:09.633Z,100792.67
2019-04-22T07:11:04.868Z,100796.35
2019-04-22T07:12:20.780Z,100793.33
2019-04-22T07:14:28.633Z,100798.88
2019-04-22T07:15:46.252Z,100791.32
2019-04-22T07:16:43.491Z,100793.51
2019-04-22T07:17:58.519Z,100790.97
2019-04-22T07:18:54.488Z,100793.97
2019-04-22T07:20:04.398Z,100790.28
2019-04-22T07:21:27.716Z,100787.94
2019-04-22T07:24:40.449Z,100787.59
2019-04-22T07:25:41.274Z,100790.62
2019-04-22T07:26:54.534Z,100786.59
2019-04-22T07:28:15.691Z,100792.27
2019-04-22T07:29:06.146Z,100789.42
2019-04-22T07:30:20.631Z,100788.92
2019-04-22T07:31:16.173Z,100787.08
2019-04-22T07:32:49.741Z,100788.73
2019-04-22T07:33:34.341Z,100788.58
2019-04-22T07:34:41.172Z,100790.23
2019-04-22T07:37:57.068Z,100790.41
2019-04-22T07:39:08.640Z,100786.02
2019-04-22T07:40:11.949Z,100779.30
2019-04-22T07:41:20.021Z,100780.45
2019-04-22T07:42:32.825Z,100786.17
2019-04-22T07:43:53.090Z,100782.33
2019-04-22T07:44:48.092Z,100784.85
2019-04-22T07:45:49.160Z,100783.81
2019-04-22T07:47:07.837Z,100776.44
2019-04-22T07:48:13.033Z,100779.77
2019-04-22T07:49:10.867Z,100777.42
2019-04-22T07:50:25.670Z,100778.07
2019-04-22T07:51:30.135Z,100773.54
2019-04-22T07:52:33.468Z,100772.87
2019-04-22T07:53:37.091Z,100775.70
2019-04-22T07:54:47.891Z,100772.33
2019-04-22T07:55:55.425Z,100776.20
2019-04-22T07:57:13.490Z,100769.63
2019-04-22T07:58:16.803Z,100773.80
2019-04-22T07:59:18.708Z,100769.61
2019-04-22T08:00:22.812Z,100766.56
2019-04-22T08:01:26.646Z,100772.08
2019-04-22T08:02:39.145Z,100767.89
2019-04-22T08:03:51.263Z,100770.04
2019-04-22T08:05:03.869Z,100772.06
2019-04-22T08:06:04.955Z,100770.52
2019-04-22T08:07:03.850Z,100770.70
2019-04-22T08:08:17.400Z,100765.13
2019-04-22T08:09:20.275Z,100771.49
2019-04-22T08:10:35.673Z,100763.77
2019-04-22T08:11:43.700Z,100765.75
2019-04-22T08:12:39.241Z,100761.05
2019-04-22T08:14:01.546Z,100760.35
2019-04-22T08:14:53.871Z,100759.99
2019-04-22T08:15:59.495Z,100756.30
2019-04-22T08:17:36.546Z,100756.09
2019-04-22T08:18:28.304Z,100757.59
2019-04-22T08:19:20.595Z,100759.11
2019-04-22T08:20:28.885Z,100757.25
2019-04-22T08:21:30.002Z,100750.67
2019-04-22T08:22:43.080Z,100750.97
2019-04-22T08:23:55.440Z,100752.50
2019-04-22T08:24:56.138Z,100745.91
2019-04-22T08:26:00.975Z,100750.08
2019-04-22T08:27:10.313Z,100751.06
2019-04-22T08:28:24.032Z,100753.59
2019-04-22T08:29:28.551Z,100739.44
2019-04-22T08:30:47.448Z,100750.34
2019-04-22T08:31:40.410Z,100750.67
2019-04-22T08:32:45.979Z,100748.83
2019-04-22T08:34:00.572Z,100747.81
2019-04-22T08:34:55.402Z,100744.59
2019-04-22T08:36:10.793Z,100735.53
2019-04-22T08:37:41.609Z,100742.94
2019-04-22T08:38:28.684Z,100734.16
2019-04-22T08:39:25.250Z,100740.02
2019-04-22T08:40:41.815Z,100734.97
2019-04-22T08:41:37.419Z,100739.15
2019-04-22T08:42:55.556Z,100736.25
2019-04-22T08:44:11.181Z,100731.20
2019-04-22T08:45:09.461Z,100732.39
2019-04-22T08:46:20.517Z,100726.30
2019-04-22T08:47:27.756Z,100724.91
2019-04-22T08:48:29.617Z,100720.51
2019-04-22T08:49:40.910Z,100726.67
2019-04-22T08:50:39.467Z,100722.80
2019-04-22T08:51:42.422Z,100724.78
2019-04-22T08:53:00.694Z,100714.01
2019-04-22T08:55:12.945Z,100716.97
2019-04-22T08:56:23.460Z,100707.50
2019-04-22T08:57:33.008Z,100703.59
2019-04-22T08:58:27.371Z,100711.13
2019-04-22T08:59:37.211Z,100707.42
2019-04-22T09:00:49.917Z,100707.05
2019-04-22T09:01:41.930Z,100705.00
2019-04-22T09:02:59.542Z,100707.02
2019-04-22T09:04:02.531Z,100702.27
2019-04-22T09:05:22.502Z,100708.29
2019-04-22T09:06:34.122Z,100702.73
2019-04-22T09:08:34.243Z,100700.80
2019-04-22T09:10:50.350Z,100693.18
2019-04-22T09:11:54.609Z,100691.45
2019-04-22T09:13:00.872Z,100692.96
2019-04-22T09:14:14.072Z,100691.23
2019-04-22T09:15:10.230Z,100686.48
2019-04-22T09:16:28.509Z,100691.52
2019-04-22T09:18:34.831Z,100678.33
2019-04-22T09:19:40.561Z,100683.14
2019-04-22T09:20:49.645Z,100677.36
2019-04-22T09:22:00.452Z,100677.52
2019-04-22T09:24:10.715Z,100678.78
2019-04-22T09:25:16.660Z,100673.34
2019-04-22T09:26:23.995Z,100675.36
2019-04-22T09:28:44.601Z,100668.23
2019-04-22T09:29:53.708Z,100662.12
2019-04-22T09:31:01.731Z,100664.43
2019-04-22T09:32:14.653Z,100660.84
2019-04-22T09:33:14.404Z,100658.59
2019-04-22T09:34:17.890Z,100660.40
2019-04-22T09:37:56.005Z,100667.84
2019-04-22T09:38:46.685Z,100652.95
2019-04-22T09:40:03.241Z,100647.04
2019-04-22T09:41:05.365Z,100646.32
2019-04-22T09:42:14.101Z,100649.14
2019-04-22T09:43:18.419Z,100652.80
2019-04-22T09:44:28.776Z,100654.41
2019-04-22T09:45:27.623Z,100654.35
2019-04-22T09:46:41.287Z,100645.86
2019-04-22T09:49:03.450Z,100637.46
2019-04-22T09:50:03.365Z,100642.47
2019-04-22T09:51:09.817Z,100641.23
2019-04-22T09:52:15.016Z,100631.09
2019-04-22T09:53:25.343Z,100636.61
2019-04-22T09:54:39.444Z,100630.30
2019-04-22T09:55:34.122Z,100625.13
2019-04-22T09:56:47.604Z,100640.94
2019-04-22T09:57:52.331Z,100623.31
2019-04-22T09:58:55.717Z,100614.81
2019-04-22T10:01:25.404Z,100612.38
2019-04-22T10:02:38.960Z,100623.29
2019-04-22T10:03:32.109Z,100613.95
2019-04-22T10:04:39.893Z,100608.88
2019-04-22T10:05:52.199Z,100610.34
2019-04-22T10:06:50.532Z,100609.31
2019-04-22T10:07:59.495Z,100603.70
2019-04-22T10:09:26.052Z,100603.30
2019-04-22T10:10:26.837Z,100610.48
2019-04-22T10:11:31.574Z,100602.20
2019-04-22T10:12:32.441Z,100599.79
2019-04-22T10:13:45.529Z,100610.19
2019-04-22T10:14:45.659Z,100603.25
2019-04-22T10:15:49.643Z,100605.55
2019-04-22T10:16:54.595Z,100596.72
2019-04-22T10:18:04.821Z,100594.34
2019-04-22T10:19:12.412Z,100595.50
2019-04-22T10:20:18.091Z,100589.05
2019-04-22T10:21:35.572Z,100596.16
2019-04-22T10:22:33.840Z,100585.16
2019-04-22T10:23:41.678Z,100576.84
2019-04-22T10:24:45.335Z,100582.86
2019-04-22T10:25:54.101Z,100580.81
2019-04-22T10:26:59.978Z,100580.41
2019-04-22T10:28:09.217Z,100588.84
2019-04-22T10:29:21.656Z,100581.86
2019-04-22T10:30:27.336Z,100573.56
2019-04-22T10:31:31.127Z,100580.61
2019-04-22T10:32:29.120Z,100574.19
2019-04-22T10:33:33.880Z,100573.16
2019-04-22T10:34:32.903Z,100573.78
2019-04-22T10:35:32.154Z,100567.34
2019-04-22T10:36:37.718Z,100571.72
2019-04-22T10:37:43.026Z,100558.83
2019-04-22T10:38:48.675Z,100569.42
2019-04-22T10:39:58.794Z,100561.63
2019-04-22T10:41:00.921Z,100569.04
2019-04-22T10:42:07.028Z,100562.90
2019-04-22T10:43:12.432Z,100563.00
2019-04-22T10:44:17.558Z,100551.48
2019-04-22T10:45:23.975Z,100554.80
2019-04-22T10:46:30.540Z,100552.10
2019-04-22T10:47:36.094Z,100557.94
2019-04-22T10:48:42.135Z,100551.69
2019-04-22T10:49:48.619Z,100545.55
2019-04-22T10:50:54.785Z,100555.01
2019-04-22T10:52:00.430Z,100538.08
2019-04-22T10:53:05.793Z,100541.81
2019-04-22T10:54:11.482Z,100542.66
2019-04-22T10:55:17.280Z,100537.76
2019-04-22T10:56:23.053Z,100535.67
2019-04-22T10:57:28.140Z,100540.05
2019-04-22T10:58:34.847Z,100537.99
2019-04-22T10:59:40.723Z,100535.58
2019-04-22T11:00:47.366Z,100525.60
2019-04-22T11:01:52.721Z,100530.27
2019-04-22T11:02:58.189Z,100524.67
2019-04-22T11:04:03.501Z,100520.10
2019-04-22T11:05:10.308Z,100517.17
2019-04-22T11:06:17.016Z,100522.91
2019-04-22T11:07:30.842Z,100529.15
2019-04-22T11:08:40.211Z,100523.52
2019-04-22T11:09:47.631Z,100521.78
2019-04-22T11:11:00.400Z,100513.95
2019-04-22T11:11:59.671Z,100511.58
2019-04-22T11:12:59.026Z,100513.02
2019-04-22T11:14:06.975Z,100507.94
2019-04-22T11:15:11.973Z,100506.36
2019-04-22T11:16:17.563Z,100503.14
2019-04-22T11:17:23.987Z,100502.63
2019-04-22T11:18:29.579Z,100499.92
2019-04-22T11:19:35.322Z,100497.73
2019-04-22T11:20:41.900Z,100494.70
2019-04-22T11:21:59.889Z,100488.48
2019-04-22T11:22:54.000Z,100486.30
2019-04-22T11:24:00.616Z,100486.81
2019-04-22T11:25:07.708Z,100487.94
2019-04-22T11:26:13.035Z,100492.13
2019-04-22T11:27:18.890Z,100485.66
2019-04-22T11:28:25.558Z,100479.73
2019-04-22T11:29:31.786Z,100483.59
2019-04-22T11:30:38.758Z,100486.94
2019-04-22T11:31:44.419Z,100480.17
2019-04-22T11:32:50.706Z,100479.76
2019-04-22T11:33:56.655Z,100472.28
2019-04-22T11:36:08.057Z,100470.70
2019-04-22T11:37:14.686Z,100473.22
2019-04-22T11:38:20.125Z,100475.17
2019-04-22T11:39:26.296Z,100478.81
2019-04-22T11:40:38.464Z,100473.73
2019-04-22T11:41:40.294Z,100479.23
2019-04-22T11:42:46.115Z,100467.37
2019-04-22T11:43:51.596Z,100463.09
2019-04-22T11:44:57.149Z,100463.60
2019-04-22T11:46:03.306Z,100462.89
2019-04-22T11:47:09.673Z,100455.48
2019-04-22T11:48:15.497Z,100450.91
2019-04-22T11:49:21.865Z,100450.20
2019-04-22T11:50:28.174Z,100452.06
2019-04-22T11:51:33.867Z,100445.08
2019-04-22T11:52:40.509Z,100447.48
2019-04-22T11:53:46.868Z,100443.44
2019-04-22T11:54:52.929Z,100438.30
2019-04-22T11:55:58.474Z,100443.72
2019-04-22T11:57:05.483Z,100436.24
2019-04-22T11:58:12.696Z,100443.30
2019-04-22T11:59:18.615Z,100449.03
2019-04-22T12:00:32.742Z,100445.61
2019-04-22T12:01:39.005Z,100447.05
2019-04-22T12:02:44.908Z,100433.29
2019-04-22T12:03:51.691Z,100434.64
2019-04-22T12:04:58.189Z,100435.57
2019-04-22T12:06:04.055Z,100427.57
2019-04-22T12:07:10.822Z,100426.63
2019-04-22T12:08:17.253Z,100427.75
2019-04-22T12:09:23.823Z,100416.17
2019-04-22T12:10:39.039Z,100416.30
2019-04-22T12:11:38.539Z,100415.55
2019-04-22T12:12:45.918Z,100416.70
2019-04-22T12:13:51.772Z,100419.17
2019-04-22T12:14:58.445Z,100415.44
2019-04-22T12:16:05.331Z,100420.62
2019-04-22T12:17:11.243Z,100419.38
2019-04-22T12:18:17.321Z,100415.92
2019-04-22T12:19:23.240Z,100411.66
2019-04-22T12:20:29.386Z,100404.06
2019-04-22T12:21:35.189Z,100405.18
2019-04-22T12:22:41.029Z,100404.98
2019-04-22T12:23:48.688Z,100396.86
2019-04-22T12:24:54.511Z,100398.50
2019-04-22T12:27:11.750Z,100391.20
2019-04-22T12:28:17.219Z,100392.36
2019-04-22T12:29:22.822Z,100386.42
2019-04-22T12:30:28.205Z,100379.66
2019-04-22T12:31:35.745Z,100383.72
2019-04-22T12:32:41.228Z,100385.91
2019-04-22T12:33:47.773Z,100386.83
2019-04-22T12:34:53.393Z,100381.21
2019-04-22T12:35:58.571Z,100382.05
2019-04-22T12:37:04.623Z,100386.72
2019-04-22T12:38:11.134Z,100375.16
2019-04-22T12:39:17.884Z,100380.86
2019-04-22T12:40:34.132Z,100370.14
2019-04-22T12:41:31.103Z,100367.20
2019-04-22T12:42:37.555Z,100370.74
2019-04-22T12:43:43.276Z,100368.64
2019-04-22T12:44:49.633Z,100361.34
2019-04-22T12:45:56.292Z,100357.08
2019-04-22T12:47:03.629Z,100358.95
2019-04-22T12:48:10.114Z,100362.58
2019-04-22T12:49:16.350Z,100362.14
2019-04-22T12:50:29.218Z,100355.16
2019-04-22T12:51:31.181Z,100351.91
2019-04-22T12:52:45.041Z,100353.89
2019-04-22T12:53:44.539Z,100357.20
2019-04-22T12:54:51.124Z,100348.03
2019-04-22T12:55:57.412Z,100339.66
2019-04-22T12:57:03.983Z,100347.59
2019-04-22T12:58:09.732Z,100341.41
2019-04-22T12:59:14.861Z,100337.98
2019-04-22T13:00:20.630Z,100332.13
2019-04-22T13:01:26.838Z,100342.00
2019-04-22T13:02:33.160Z,100335.30
2019-04-22T13:03:40.197Z,100344.58
2019-04-22T13:04:46.022Z,100334.02
2019-04-22T13:05:51.457Z,100338.61
2019-04-22T13:06:57.684Z,100324.02
2019-04-22T13:08:02.800Z,100322.34
2019-04-22T13:09:08.812Z,100322.66
2019-04-22T13:10:15.638Z,100317.77
2019-04-22T13:11:26.963Z,100313.49
2019-04-22T13:12:28.962Z,100315.13
2019-04-22T13:13:34.602Z,100311.06
2019-04-22T13:14:41.030Z,100305.44
2019-04-22T13:15:46.806Z,100305.52
2019-04-22T13:16:53.615Z,100307.19
2019-04-22T13:18:10.000Z,100305.06
2019-04-22T13:19:11.323Z,100302.36
2019-04-22T13:20:16.398Z,100295.58
2019-04-22T13:21:20.889Z,100299.64
2019-04-22T13:22:27.044Z,100295.58
2019-04-22T13:23:33.889Z,100291.31
2019-04-22T13:24:39.685Z,100297.56
2019-04-22T13:25:44.968Z,100292.42
2019-04-22T13:26:50.659Z,100290.34
2019-04-22T13:27:57.398Z,100289.58
2019-04-22T13:29:03.204Z,100287.49
2019-04-22T13:30:12.472Z,100289.13
2019-04-22T13:31:20.764Z,100276.41
2019-04-22T13:32:25.014Z,100282.98
2019-04-22T13:33:30.661Z,100289.03
2019-04-22T13:34:42.312Z,100280.38
2019-04-22T13:35:43.824Z,100277.66
2019-04-22T13:36:50.333Z,100281.73
2019-04-22T13:37:57.206Z,100276.48
2019-04-22T13:39:02.966Z,100282.25
2019-04-22T13:40:10.937Z,100277.14
2019-04-22T13:41:26.429Z,100282.33
2019-04-22T13:42:24.071Z,100278.26
2019-04-22T13:43:31.120Z,100273.36
2019-04-22T13:44:37.630Z,100271.48
2019-04-22T13:45:43.733Z,100271.48
2019-04-22T13:47:11.580Z,100265.53
2019-04-22T13:48:11.543Z,100263.34
2019-04-22T13:49:35.357Z,100262.51
2019-04-22T13:50:47.627Z,100258.16
2019-04-22T13:53:00.538Z,100255.45
2019-04-22T13:54:06.514Z,100254.37
2019-04-22T13:55:01.866Z,100257.84
2019-04-22T13:56:07.543Z,100259.80
2019-04-22T13:57:10.300Z,100253.33
2019-04-22T13:58:12.341Z,100250.94
2019-04-22T13:59:13.574Z,100241.66
2019-04-22T14:00:14.591Z,100240.81
2019-04-22T14:01:22.785Z,100245.51
2019-04-22T14:02:37.995Z,100242.17
2019-04-22T14:03:54.622Z,100248.95
2019-04-22T14:05:00.916Z,100243.25
2019-04-22T14:06:06.957Z,100234.59
2019-04-22T14:07:12.720Z,100233.77
2019-04-22T14:08:18.498Z,100232.69
2019-04-22T14:09:26.431Z,100230.53
2019-04-22T14:10:32.147Z,100232.69
2019-04-22T14:11:48.844Z,100230.59
2019-04-22T14:12:44.630Z,100226.39
2019-04-22T14:13:50.245Z,100230.73
2019-04-22T14:14:56.363Z,100223.23
2019-04-22T14:16:02.081Z,100218.60
2019-04-22T14:17:07.285Z,100214.33
2019-04-22T14:18:12.940Z,100209.21
2019-04-22T14:19:18.513Z,100209.80
2019-04-22T14:20:27.748Z,100212.06
2019-04-22T14:21:32.676Z,100202.57
2019-04-22T14:22:38.854Z,100204.52
2019-04-22T14:23:44.774Z,100207.85
2019-04-22T14:24:50.461Z,100209.52
2019-04-22T14:25:56.678Z,100203.02